Time;durP1;ratioP1;P1;durP2;ratioP2;P2;SDS_P1;SDS_P2;PMS_P1;PMS_P2;Temp;Humidity;BMP_temperature;BMP_pressure;BME280_temperature;BME280_humidity;BME280_pressure;Samples;Min_cycle;Max_cycle;Signal;HPM_P1;HPM_P2
2022/05/21 00:00:45;;;;;;;14.65;8.52;;;10.90;99.90;;;;;;5006810;28;20042;-72
2022/05/21 00:03:11;;;;;;;11.80;9.02;;;10.80;99.90;;;;;;5019252;28;20072;-72
2022/05/21 00:05:37;;;;;;;13.63;9.05;;;10.90;99.90;;;;;;4990126;28;20528;-72
2022/05/21 00:08:05;;;;;;;15.68;9.82;;;10.90;99.90;;;;;;5007372;28;20566;-72
2022/05/21 00:10:32;;;;;;;12.60;9.65;;;10.90;99.90;;;;;;5023874;28;20446;-72
2022/05/21 00:13:01;;;;;;;13.50;9.63;;;10.90;99.90;;;;;;5023898;28;20407;-72
2022/05/21 00:15:29;;;;;;;13.23;9.50;;;10.90;99.90;;;;;;5023592;28;20582;-72
2022/05/21 00:17:55;;;;;;;18.70;12.63;;;10.90;99.90;;;;;;5023494;28;20057;-73
2022/05/21 00:23:11;;;;;;;18.95;11.88;;;10.80;99.90;;;;;;5018724;28;20041;-72
2022/05/21 00:25:37;;;;;;;12.77;10.90;;;10.80;99.90;;;;;;5006507;28;20037;-72
2022/05/21 00:28:03;;;;;;;12.13;10.63;;;10.80;99.90;;;;;;4989065;28;20065;-72
2022/05/21 00:30:29;;;;;;;17.88;11.98;;;10.80;99.90;;;;;;5021294;28;20099;-72
2022/05/21 00:32:54;;;;;;;16.48;11.95;;;10.80;99.90;;;;;;5004103;28;20511;-72
2022/05/21 00:35:20;;;;;;;15.43;13.13;;;10.70;99.90;;;;;;5039140;28;20037;-72
2022/05/21 00:37:46;;;;;;;23.48;16.02;;;10.70;99.90;;;;;;5007162;28;20052;-72
2022/05/21 00:40:12;;;;;;;22.60;17.92;;;10.70;99.90;;;;;;5009135;28;20063;-72
2022/05/21 00:42:43;;;;;;;34.17;22.13;;;10.70;99.90;;;;;;5009967;28;20045;-72
2022/05/21 00:45:13;;;;;;;23.58;21.00;;;10.80;99.90;;;;;;5025758;28;20111;-72
2022/05/21 00:47:39;;;;;;;25.92;22.08;;;10.80;99.90;;;;;;5010627;28;20054;-72
2022/05/21 00:50:09;;;;;;;36.42;27.20;;;10.90;99.90;;;;;;5008053;28;20080;-72
2022/05/21 00:52:36;;;;;;;31.85;27.08;;;10.90;99.90;;;;;;5010550;28;20230;-72
2022/05/21 00:55:13;;;;;;;35.65;27.23;;;10.90;99.90;;;;;;5026186;28;20583;-72
2022/05/21 00:59:47;;;;;;;35.53;30.33;;;11.00;99.90;;;;;;5010544;28;20041;-73
2022/05/21 01:00:36;;;;;;;38.88;32.08;;;11.00;99.90;;;;;;5024626;28;20091;-72
2022/05/21 01:03:02;;;;;;;41.15;34.22;;;11.10;99.90;;;;;;5023152;28;20061;-72
2022/05/21 01:05:29;;;;;;;44.40;36.08;;;11.10;99.90;;;;;;5024086;28;20095;-73
2022/05/21 01:07:58;;;;;;;47.38;37.70;;;11.10;99.90;;;;;;5009603;28;20099;-73
2022/05/21 01:10:27;;;;;;;43.05;37.70;;;11.20;99.90;;;;;;5025724;28;20554;-72
2022/05/21 01:12:56;;;;;;;41.63;36.47;;;11.10;99.90;;;;;;5024557;28;20049;-72
2022/05/21 01:15:36;;;;;;;51.20;40.20;;;11.20;99.90;;;;;;5023849;28;20472;-72
2022/05/21 01:18:06;;;;;;;46.40;41.15;;;11.20;99.90;;;;;;5007018;28;20049;-72
2022/05/21 01:20:43;;;;;;;49.42;42.63;;;11.30;99.90;;;;;;5023019;28;20073;-72
2022/05/21 01:23:12;;;;;;;55.10;43.65;;;11.30;99.90;;;;;;5025957;28;20136;-72
2022/05/21 01:25:39;;;;;;;54.45;44.25;;;11.30;99.90;;;;;;5009324;28;20465;-73
2022/05/21 01:28:13;;;;;;;51.33;43.65;;;11.40;99.90;;;;;;5008837;28;20140;-72
2022/05/21 01:30:46;;;;;;;57.55;46.40;;;11.40;99.90;;;;;;5009295;28;20784;-73
2022/05/21 01:33:15;;;;;;;56.65;45.25;;;11.50;99.90;;;;;;5020563;28;20335;-74
2022/05/21 01:35:45;;;;;;;56.10;45.10;;;11.50;99.90;;;;;;5007709;28;20049;-71
2022/05/21 01:38:15;;;;;;;53.08;42.75;;;11.60;99.90;;;;;;4991319;28;20140;-74
2022/05/21 01:40:41;;;;;;;59.95;44.80;;;11.60;99.90;;;;;;5009310;28;20041;-74
2022/05/21 01:45:52;;;;;;;58.75;45.58;;;11.60;99.90;;;;;;5024654;28;20041;-73
2022/05/21 01:48:21;;;;;;;58.53;45.33;;;11.70;99.90;;;;;;5025674;28;20038;-74
2022/05/21 01:50:48;;;;;;;54.22;43.65;;;11.70;99.90;;;;;;5025031;28;20103;-73
2022/05/21 01:53:15;;;;;;;69.85;48.10;;;11.70;99.90;;;;;;4992433;28;20041;-74
2022/05/21 01:55:42;;;;;;;60.53;46.50;;;11.80;99.90;;;;;;5022743;28;20034;-74
2022/05/21 01:58:08;;;;;;;53.55;44.20;;;11.80;99.90;;;;;;5024920;28;20111;-74
2022/05/21 02:00:35;;;;;;;54.35;44.80;;;11.80;99.90;;;;;;5005348;28;20128;-74
2022/05/21 02:03:01;;;;;;;57.95;45.25;;;11.90;99.90;;;;;;5006771;28;20041;-72
2022/05/21 02:05:27;;;;;;;57.50;45.58;;;11.90;99.90;;;;;;5010592;28;20048;-72
2022/05/21 02:07:52;;;;;;;57.10;45.90;;;11.90;99.90;;;;;;5007420;28;20128;-73
2022/05/21 02:10:18;;;;;;;57.42;45.53;;;11.90;99.90;;;;;;4991065;28;20129;-73
2022/05/21 02:12:44;;;;;;;53.47;47.25;;;11.90;99.90;;;;;;5026958;28;20092;-74
2022/05/21 02:15:10;;;;;;;56.88;48.08;;;11.90;99.90;;;;;;4993934;28;20045;-74
2022/05/21 02:17:36;;;;;;;57.05;49.03;;;12.00;99.90;;;;;;5026507;28;20061;-74
2022/05/21 02:20:03;;;;;;;55.67;49.15;;;12.00;99.90;;;;;;4993828;28;20100;-73
2022/05/21 02:22:29;;;;;;;60.30;50.53;;;12.00;99.90;;;;;;5027384;28;20148;-73
2022/05/21 02:24:55;;;;;;;58.47;50.33;;;12.00;99.90;;;;;;5026567;28;20056;-73
2022/05/21 02:27:21;;;;;;;55.15;49.22;;;12.00;99.90;;;;;;5011138;28;20136;-73
2022/05/21 02:29:48;;;;;;;58.38;50.90;;;12.00;99.90;;;;;;5026984;28;20507;-72
2022/05/21 02:32:14;;;;;;;62.08;50.80;;;12.10;99.90;;;;;;5018229;28;20112;-73
2022/05/21 02:34:41;;;;;;;59.55;50.88;;;12.10;99.90;;;;;;5006664;28;20045;-73
2022/05/21 02:39:52;;;;;;;58.72;51.40;;;12.10;99.90;;;;;;5026720;28;20049;-73
2022/05/21 02:45:03;;;;;;;57.03;50.92;;;12.10;99.90;;;;;;5026222;28;20060;-73
2022/05/21 02:47:30;;;;;;;55.75;49.72;;;12.10;99.90;;;;;;5010378;28;20095;-73
2022/05/21 02:49:56;;;;;;;57.38;50.33;;;12.20;99.90;;;;;;5009844;28;20492;-73
2022/05/21 02:52:23;;;;;;;54.13;48.20;;;12.20;99.90;;;;;;5009672;28;20858;-72
2022/05/21 02:54:49;;;;;;;59.10;49.78;;;12.20;99.90;;;;;;5030005;28;20049;-73
2022/05/21 02:57:15;;;;;;;54.45;47.42;;;12.20;99.90;;;;;;5013337;28;20120;-72
2022/05/21 02:59:42;;;;;;;50.80;44.33;;;12.20;99.90;;;;;;5030202;28;20251;-73
2022/05/21 03:02:08;;;;;;;54.00;46.25;;;12.20;99.90;;;;;;5010291;28;20353;-72
2022/05/21 03:04:34;;;;;;;53.38;42.65;;;12.20;99.90;;;;;;5012556;28;20072;-73
2022/05/21 03:07:00;;;;;;;55.97;45.47;;;12.30;99.90;;;;;;5029651;28;20045;-73
2022/05/21 03:12:30;;;;;;;47.42;41.95;;;12.30;99.90;;;;;;4972899;28;20061;-74
2022/05/21 03:14:56;;;;;;;51.95;43.45;;;12.30;99.90;;;;;;4956404;28;20050;-73
2022/05/21 03:17:25;;;;;;;49.15;42.10;;;12.30;99.90;;;;;;4980494;28;20108;-74
2022/05/21 03:19:51;;;;;;;46.90;40.80;;;12.40;99.90;;;;;;5012895;28;20559;-74
2022/05/21 03:22:17;;;;;;;43.70;38.85;;;12.40;99.90;;;;;;5029551;28;20072;-73
2022/05/21 03:24:43;;;;;;;53.97;42.22;;;12.40;99.90;;;;;;5013319;28;20495;-72
2022/05/21 03:27:09;;;;;;;45.22;38.70;;;12.50;99.90;;;;;;4992388;28;20136;-74
2022/05/21 03:29:35;;;;;;;44.17;38.15;;;12.50;99.90;;;;;;5009742;28;20448;-74
2022/05/21 03:32:01;;;;;;;48.40;38.65;;;12.50;99.90;;;;;;4996054;28;20045;-72
2022/05/21 03:34:26;;;;;;;50.58;38.47;;;12.50;99.90;;;;;;5011446;28;20050;-73
2022/05/21 03:36:52;;;;;;;48.17;39.65;;;12.50;99.90;;;;;;4993112;28;20492;-73
2022/05/21 03:39:18;;;;;;;40.97;35.97;;;12.50;99.90;;;;;;5043962;28;20049;-73
2022/05/21 03:41:44;;;;;;;45.15;36.40;;;12.50;99.90;;;;;;4996699;28;20504;-72
2022/05/21 03:44:09;;;;;;;43.50;35.30;;;12.60;99.90;;;;;;5012348;28;20053;-72
2022/05/21 03:46:38;;;;;;;44.10;35.45;;;12.50;99.90;;;;;;5012678;28;20060;-73
2022/05/21 03:49:05;;;;;;;41.58;33.40;;;12.60;99.90;;;;;;5012619;28;20575;-73
2022/05/21 03:51:31;;;;;;;39.45;30.65;;;12.60;99.90;;;;;;5012912;28;20049;-72
2022/05/21 03:53:57;;;;;;;37.17;30.38;;;12.60;99.90;;;;;;5012057;28;20463;-73
2022/05/21 03:56:22;;;;;;;35.70;29.90;;;12.60;99.90;;;;;;5027528;28;20038;-73
2022/05/21 03:58:48;;;;;;;36.55;27.52;;;12.60;99.90;;;;;;5012191;28;20055;-74
2022/05/21 04:01:15;;;;;;;32.03;22.92;;;12.70;99.90;;;;;;5024158;28;20479;-72
2022/05/21 04:03:41;;;;;;;29.80;19.70;;;12.70;99.90;;;;;;5024822;28;20041;-72
2022/05/21 04:06:07;;;;;;;27.98;17.60;;;12.70;99.90;;;;;;5027646;28;20049;-72
2022/05/21 04:08:33;;;;;;;25.20;13.93;;;12.70;99.90;;;;;;5013063;28;20077;-73
2022/05/21 04:10:59;;;;;;;24.80;10.48;;;12.70;99.90;;;;;;5012706;28;20080;-72
2022/05/21 04:13:26;;;;;;;27.42;10.70;;;12.70;99.90;;;;;;5012823;28;20077;-73
2022/05/21 04:15:53;;;;;;;25.83;8.98;;;12.80;99.90;;;;;;5011587;28;20053;-72
2022/05/21 04:18:19;;;;;;;24.90;8.77;;;12.80;99.90;;;;;;5011756;28;20061;-72
2022/05/21 04:20:46;;;;;;;15.95;7.43;;;12.80;99.90;;;;;;5011923;28;20080;-72
2022/05/21 04:23:12;;;;;;;21.55;7.60;;;12.80;99.90;;;;;;5028243;28;20051;-72
2022/05/21 04:25:38;;;;;;;19.77;7.57;;;12.80;99.90;;;;;;5012270;28;20096;-72
2022/05/21 04:28:04;;;;;;;23.60;8.05;;;12.80;99.90;;;;;;5028076;28;20053;-72
2022/05/21 04:30:31;;;;;;;20.55;7.82;;;12.90;99.90;;;;;;5011804;28;20080;-71
2022/05/21 04:32:58;;;;;;;25.50;8.07;;;12.80;99.90;;;;;;5015132;28;20053;-72
2022/05/21 04:36:17;;;;;;;19.60;7.32;;;12.80;99.90;;;;;;5027742;28;20509;-72
2022/05/21 04:38:12;;;;;;;19.88;7.68;;;12.90;99.90;;;;;;5027250;28;20063;-73
2022/05/21 04:40:37;;;;;;;19.80;7.05;;;12.90;99.90;;;;;;5027919;28;20206;-72
2022/05/21 04:43:03;;;;;;;23.60;7.28;;;12.90;99.90;;;;;;4995082;28;20281;-72
2022/05/21 04:45:29;;;;;;;19.95;6.72;;;12.90;99.90;;;;;;4991693;28;20038;-73
2022/05/21 04:47:55;;;;;;;16.27;6.22;;;12.90;99.90;;;;;;5007985;28;20486;-73
2022/05/21 04:50:20;;;;;;;17.85;6.47;;;12.90;99.90;;;;;;5008427;28;20038;-73
2022/05/21 04:52:46;;;;;;;20.77;7.85;;;12.90;99.90;;;;;;5027975;28;20524;-73
2022/05/21 04:55:12;;;;;;;19.13;6.60;;;12.90;99.90;;;;;;5011198;28;20136;-73
2022/05/21 04:57:38;;;;;;;18.58;6.35;;;12.90;99.90;;;;;;5027864;28;20060;-73
2022/05/21 05:00:06;;;;;;;21.90;5.90;;;13.00;99.90;;;;;;5010030;28;20042;-71
2022/05/21 05:02:32;;;;;;;18.70;5.25;;;12.90;99.90;;;;;;5021138;28;20127;-72
2022/05/21 05:04:57;;;;;;;17.33;6.05;;;13.00;99.90;;;;;;5024465;28;20049;-72
2022/05/21 05:07:24;;;;;;;16.35;5.35;;;13.00;99.90;;;;;;5021820;28;20069;-73
2022/05/21 05:09:51;;;;;;;21.83;6.32;;;13.00;99.90;;;;;;5006345;28;20037;-72
2022/05/21 05:12:16;;;;;;;17.42;5.63;;;13.00;99.90;;;;;;5024015;28;20045;-72
2022/05/21 05:14:42;;;;;;;18.25;5.80;;;13.00;99.90;;;;;;5024650;28;20120;-72
2022/05/21 05:17:11;;;;;;;17.85;5.75;;;13.10;99.90;;;;;;5008405;28;20087;-72
2022/05/21 05:19:38;;;;;;;19.58;5.65;;;13.00;99.90;;;;;;5021012;28;20044;-72
2022/05/21 05:22:04;;;;;;;16.17;5.72;;;13.10;99.90;;;;;;5009491;28;20233;-72
2022/05/21 05:24:30;;;;;;;16.73;5.07;;;13.10;99.90;;;;;;5024647;28;20033;-72
2022/05/21 05:26:56;;;;;;;19.90;5.55;;;13.20;99.90;;;;;;5020760;28;20526;-72
2022/05/21 05:29:22;;;;;;;18.30;5.13;;;13.20;99.90;;;;;;5021410;28;20072;-72
2022/05/21 05:31:48;;;;;;;16.13;5.35;;;13.20;99.90;;;;;;5016076;28;20065;-71
2022/05/21 05:34:14;;;;;;;18.48;5.65;;;13.20;99.90;;;;;;4994410;28;20144;-72
2022/05/21 05:36:41;;;;;;;16.30;5.60;;;13.20;99.90;;;;;;5004640;28;20048;-72
2022/05/21 05:39:06;;;;;;;12.73;5.18;;;13.20;99.90;;;;;;5023804;28;20281;-72
2022/05/21 05:41:36;;;;;;;17.95;5.22;;;13.20;99.90;;;;;;5020895;28;20256;-71
2022/05/21 05:44:02;;;;;;;14.52;4.47;;;13.30;99.90;;;;;;5026041;28;20041;-71
2022/05/21 05:46:28;;;;;;;12.63;4.07;;;13.40;99.90;;;;;;5006310;28;20446;-71
2022/05/21 05:48:54;;;;;;;15.50;5.22;;;13.40;99.90;;;;;;5007631;28;20049;-71
2022/05/21 05:51:20;;;;;;;13.35;5.25;;;13.50;99.90;;;;;;5021482;28;20466;-71
2022/05/21 05:53:46;;;;;;;14.70;4.07;;;13.60;99.90;;;;;;5024685;28;20041;-71
2022/05/21 05:56:16;;;;;;;15.68;4.60;;;13.70;99.90;;;;;;5023859;28;20481;-71
2022/05/21 06:01:26;;;;;;;19.08;5.15;;;13.70;99.90;;;;;;5009956;28;20033;-71
2022/05/21 06:03:53;;;;;;;15.25;4.93;;;13.70;99.90;;;;;;5026507;28;20041;-71
2022/05/21 06:06:19;;;;;;;17.17;4.90;;;13.70;99.90;;;;;;5022607;28;20120;-71
2022/05/21 06:08:46;;;;;;;13.48;4.30;;;13.70;99.90;;;;;;5025537;28;20124;-71
2022/05/21 06:11:12;;;;;;;13.13;4.93;;;13.70;99.90;;;;;;5008192;28;20045;-71
2022/05/21 06:13:38;;;;;;;14.82;4.47;;;13.70;99.90;;;;;;5008879;28;20047;-71
2022/05/21 06:16:05;;;;;;;17.42;4.00;;;13.70;99.90;;;;;;5008487;28;20411;-71
2022/05/21 06:18:31;;;;;;;15.35;4.55;;;13.80;99.90;;;;;;5025197;28;20054;-71
2022/05/21 06:21:02;;;;;;;15.73;4.53;;;13.80;99.90;;;;;;5008756;28;20119;-71
2022/05/21 06:23:28;;;;;;;12.90;4.25;;;14.00;99.90;;;;;;5025612;28;20400;-72
2022/05/21 06:25:54;;;;;;;19.15;5.20;;;14.00;99.90;;;;;;5008844;28;20052;-71
2022/05/21 06:28:20;;;;;;;13.48;4.60;;;14.10;99.90;;;;;;5026568;28;20056;-71
2022/05/21 06:30:46;;;;;;;13.63;4.43;;;14.20;99.90;;;;;;5029414;28;20041;-72
2022/05/21 06:33:15;;;;;;;13.85;4.63;;;14.20;99.90;;;;;;4995231;28;20444;-70
2022/05/21 06:35:41;;;;;;;14.45;3.78;;;14.30;99.90;;;;;;5011014;28;20084;-71
2022/05/21 06:38:07;;;;;;;15.45;4.60;;;14.30;99.90;;;;;;5012531;28;20069;-71
2022/05/21 06:40:32;;;;;;;13.75;4.32;;;14.30;99.90;;;;;;5011858;28;20076;-74
2022/05/21 06:43:00;;;;;;;15.65;4.60;;;14.20;99.90;;;;;;5011022;28;20129;-72
2022/05/21 06:45:29;;;;;;;12.23;3.97;;;14.20;99.90;;;;;;5012572;28;20049;-71
2022/05/21 06:48:03;;;;;;;16.00;5.45;;;14.20;99.90;;;;;;5011928;28;20052;-72
2022/05/21 06:50:29;;;;;;;13.77;4.97;;;14.30;99.90;;;;;;5012514;28;20050;-71
2022/05/21 06:52:55;;;;;;;13.75;4.45;;;14.40;99.90;;;;;;5028615;28;20103;-71
2022/05/21 06:55:22;;;;;;;15.07;4.90;;;14.60;99.90;;;;;;5028982;28;20068;-71
2022/05/21 06:57:49;;;;;;;15.55;4.28;;;14.80;99.90;;;;;;5045203;28;20041;-71
2022/05/21 07:00:17;;;;;;;12.13;4.10;;;14.80;99.90;;;;;;5010422;28;20029;-71
2022/05/21 07:02:43;;;;;;;16.67;4.30;;;14.90;99.90;;;;;;5011130;28;20677;-73
2022/05/21 07:07:56;;;;;;;12.75;4.32;;;14.80;99.90;;;;;;5029041;28;20061;-71
2022/05/21 07:10:25;;;;;;;10.98;3.88;;;15.00;99.90;;;;;;5012679;28;20478;-71
2022/05/21 07:12:51;;;;;;;14.80;4.10;;;15.10;99.90;;;;;;5011383;28;20061;-71
2022/05/21 07:15:18;;;;;;;12.10;3.70;;;15.20;99.90;;;;;;5028924;28;20041;-71
2022/05/21 07:17:47;;;;;;;10.35;3.22;;;15.30;99.90;;;;;;5011509;28;20068;-71
2022/05/21 07:20:16;;;;;;;9.55;3.78;;;15.20;99.90;;;;;;5011662;28;20046;-71
2022/05/21 07:22:43;;;;;;;11.35;2.97;;;15.10;99.90;;;;;;5028540;28;20045;-71
2022/05/21 07:25:12;;;;;;;9.23;2.90;;;15.00;99.90;;;;;;5012019;28;20406;-71
2022/05/21 07:27:38;;;;;;;11.40;2.70;;;15.00;99.90;;;;;;5025013;28;20431;-71
2022/05/21 07:30:05;;;;;;;7.75;2.40;;;15.00;99.90;;;;;;5011266;28;20073;-71
2022/05/21 07:32:30;;;;;;;9.55;2.72;;;15.00;99.90;;;;;;5010284;28;20405;-71
2022/05/21 07:35:04;;;;;;;11.23;2.60;;;15.00;99.90;;;;;;5011469;28;20052;-72
2022/05/21 07:37:29;;;;;;;10.77;2.67;;;15.00;99.90;;;;;;5011515;28;20111;-71
2022/05/21 07:39:55;;;;;;;12.10;3.00;;;15.00;99.90;;;;;;5009964;28;20491;-72
2022/05/21 07:42:22;;;;;;;8.98;2.70;;;15.20;99.90;;;;;;5010242;28;20053;-72
2022/05/21 07:44:48;;;;;;;10.32;2.90;;;15.40;99.90;;;;;;5000344;28;20053;-71
2022/05/21 07:47:14;;;;;;;7.45;2.20;;;15.60;99.90;;;;;;5008841;28;20069;-72
2022/05/21 07:49:40;;;;;;;11.65;2.88;;;15.70;99.90;;;;;;5027670;28;20120;-71
2022/05/21 07:52:06;;;;;;;10.00;2.67;;;15.80;99.90;;;;;;5027525;28;20054;-71
2022/05/21 07:54:31;;;;;;;9.80;2.85;;;15.80;99.90;;;;;;5024806;28;20051;-71
2022/05/21 07:56:57;;;;;;;9.57;2.78;;;16.00;99.90;;;;;;5027871;28;20049;-72
2022/05/21 07:59:23;;;;;;;7.40;2.40;;;16.10;99.90;;;;;;4994974;28;20137;-71
2022/05/21 08:01:49;;;;;;;5.43;2.08;;;16.30;99.90;;;;;;5023566;28;20683;-72
2022/05/21 08:04:17;;;;;;;10.13;2.50;;;16.50;99.90;;;;;;5025597;28;20463;-71
2022/05/21 08:06:43;;;;;;;9.57;2.55;;;16.60;99.90;;;;;;5011358;28;20098;-71
2022/05/21 08:09:09;;;;;;;10.50;2.33;;;16.60;99.90;;;;;;4994798;28;20025;-71
2022/05/21 08:11:36;;;;;;;8.85;2.38;;;16.60;99.90;;;;;;5024192;28;20041;-71
2022/05/21 08:14:02;;;;;;;8.05;2.45;;;16.60;99.90;;;;;;5010689;28;20104;-71
2022/05/21 08:16:29;;;;;;;9.38;2.85;;;16.40;99.90;;;;;;5010906;28;20065;-71
2022/05/21 08:18:55;;;;;;;11.10;2.60;;;16.40;99.90;;;;;;5010406;28;20057;-71
2022/05/21 08:21:21;;;;;;;12.15;2.25;;;16.50;99.90;;;;;;5027157;28;20129;-71
2022/05/21 08:29:15;;;;;;;9.75;2.10;;;16.70;99.90;;;;;;5011596;28;20042;-72
2022/05/21 08:31:41;;;;;;;7.20;1.80;;;16.40;99.90;;;;;;4994547;28;20419;-72
2022/05/21 08:34:07;;;;;;;7.78;2.10;;;16.40;99.90;;;;;;5010233;28;20515;-71
2022/05/21 08:36:33;;;;;;;8.45;2.25;;;16.60;99.90;;;;;;5010672;28;20114;-71
2022/05/21 08:39:00;;;;;;;9.60;2.72;;;16.80;99.90;;;;;;5010138;28;20053;-72
2022/05/21 08:41:32;;;;;;;10.63;2.55;;;16.90;99.90;;;;;;5009502;28;20077;-71
2022/05/21 08:44:07;;;;;;;13.05;2.80;;;16.90;99.90;;;;;;5026856;28;20078;-71
2022/05/21 08:47:08;;;;;;;10.73;2.45;;;16.80;99.90;;;;;;5027507;28;20072;-71
2022/05/21 08:49:37;;;;;;;9.52;2.40;;;16.70;99.90;;;;;;5027268;28;20080;-71
2022/05/21 08:52:24;;;;;;;11.15;2.83;;;16.60;99.90;;;;;;5010492;28;20045;-71
2022/05/21 08:54:52;;;;;;;9.10;2.20;;;16.60;99.90;;;;;;5027287;28;20045;-71
2022/05/21 08:57:44;;;;;;;11.27;2.72;;;16.70;99.90;;;;;;5026425;28;20045;-70
2022/05/21 09:00:13;;;;;;;8.98;2.28;;;16.90;99.90;;;;;;5024715;28;20044;-71
2022/05/21 09:02:39;;;;;;;8.65;2.20;;;17.20;99.90;;;;;;5038896;28;20045;-71
2022/05/21 09:05:09;;;;;;;9.80;2.63;;;17.40;99.90;;;;;;5009582;28;20518;-71
2022/05/21 09:08:13;;;;;;;9.52;2.00;;;17.60;99.90;;;;;;5026151;28;20109;-71
2022/05/21 09:11:04;;;;;;;9.02;2.10;;;17.80;99.90;;;;;;5001288;28;20045;-71
2022/05/21 09:13:44;;;;;;;9.15;2.33;;;17.80;99.90;;;;;;5026244;28;20091;-71
2022/05/21 09:18:58;;;;;;;8.25;2.58;;;17.10;99.90;;;;;;5025864;28;20508;-71
2022/05/21 09:21:27;;;;;;;7.75;2.15;;;16.80;99.90;;;;;;5009322;28;20045;-71
2022/05/21 09:23:56;;;;;;;9.32;2.33;;;16.60;99.90;;;;;;5025905;28;20046;-73
2022/05/21 09:26:25;;;;;;;6.97;1.90;;;16.60;99.90;;;;;;5009463;28;20073;-71
2022/05/21 09:28:52;;;;;;;8.87;2.27;;;16.80;99.90;;;;;;5025505;28;20045;-72
2022/05/21 09:31:29;;;;;;;6.13;1.70;;;16.80;99.90;;;;;;5025491;28;20137;-72
2022/05/21 09:33:55;;;;;;;9.45;2.03;;;17.00;99.90;;;;;;5009625;28;20115;-72
2022/05/21 09:36:33;;;;;;;9.95;2.17;;;17.30;99.90;;;;;;5009371;28;20423;-71
2022/05/21 09:38:58;;;;;;;9.65;2.08;;;17.70;99.90;;;;;;5008634;28;21526;-72
2022/05/21 09:41:27;;;;;;;6.75;2.13;;;18.00;99.90;;;;;;4992074;28;20034;-72
2022/05/21 09:47:08;;;;;;;9.80;2.40;;;18.10;99.90;;;;;;5025288;28;20049;-72
2022/05/21 09:49:34;;;;;;;9.40;2.08;;;17.90;99.90;;;;;;5008955;28;20048;-71
2022/05/21 09:52:07;;;;;;;9.93;2.83;;;17.60;99.90;;;;;;5025534;28;20042;-71
2022/05/21 09:54:43;;;;;;;9.02;2.20;;;17.40;99.90;;;;;;5009684;28;20050;-72
2022/05/21 09:57:30;;;;;;;7.40;2.20;;;17.30;99.90;;;;;;5025727;28;20056;-72
2022/05/21 10:00:12;;;;;;;8.25;2.00;;;17.40;99.90;;;;;;5024880;28;20045;-71
2022/05/21 10:02:43;;;;;;;8.13;2.00;;;17.60;99.90;;;;;;5009533;28;20053;-72
2022/05/21 10:05:28;;;;;;;10.50;2.20;;;17.70;99.90;;;;;;5029714;28;20115;-72
2022/05/21 10:10:58;;;;;;;8.82;1.88;;;17.40;99.90;;;;;;5027637;28;20050;-71
2022/05/21 10:13:26;;;;;;;8.98;2.13;;;17.10;99.90;;;;;;5013257;28;20076;-72
2022/05/21 10:15:57;;;;;;;5.85;2.00;;;16.90;99.90;;;;;;5029618;28;20041;-71
2022/05/21 10:18:38;;;;;;;7.72;2.00;;;16.80;99.90;;;;;;5030228;28;20073;-73
2022/05/21 10:21:17;;;;;;;6.95;2.15;;;16.70;99.90;;;;;;5029326;28;20045;-72
2022/05/21 10:23:49;;;;;;;7.57;1.70;;;16.60;99.90;;;;;;5028207;28;20403;-71
2022/05/21 10:26:34;;;;;;;8.18;1.92;;;16.60;99.90;;;;;;5013252;28;20103;-72
2022/05/21 10:29:27;;;;;;;13.25;2.08;;;16.90;99.90;;;;;;5029798;28;20050;-75
2022/05/21 10:32:17;;;;;;;7.20;1.85;;;17.40;99.90;;;;;;5029536;28;20068;-75
2022/05/21 10:35:22;;;;;;;8.25;1.80;;;17.60;99.90;;;;;;5013795;28;20044;-76
2022/05/21 10:38:07;;;;;;;10.13;2.22;;;17.60;99.90;;;;;;5012453;28;20111;-76
2022/05/21 10:40:50;;;;;;;9.63;1.90;;;17.30;99.90;;;;;;5010749;28;20324;-76
2022/05/21 10:43:25;;;;;;;7.47;2.00;;;17.10;99.90;;;;;;5027557;28;20127;-76
2022/05/21 10:46:18;;;;;;;8.68;2.00;;;17.00;99.90;;;;;;5028399;28;20060;-76
2022/05/21 10:48:59;;;;;;;8.80;2.03;;;16.90;99.90;;;;;;5012763;28;20136;-74
2022/05/21 10:51:34;;;;;;;8.25;2.35;;;16.90;99.90;;;;;;5028786;28;20049;-73
2022/05/21 10:54:24;;;;;;;5.82;1.95;;;17.10;99.90;;;;;;5028568;28;20083;-73
2022/05/21 10:57:11;;;;;;;5.60;2.00;;;17.20;99.90;;;;;;5028905;28;20081;-73
2022/05/21 11:00:02;;;;;;;7.65;2.10;;;17.20;99.90;;;;;;5010070;28;20053;-73
2022/05/21 11:02:36;;;;;;;;;;;17.10;99.90;;;;;;5026907;28;20527;-73
2022/05/21 11:05:15;;;;;;;7.13;1.88;;;17.10;99.90;;;;;;5028634;28;19921;-70
2022/05/21 11:08:01;;;;;;;9.98;2.38;;;17.40;99.90;;;;;;5012952;28;20470;-73
2022/05/21 11:10:51;;;;;;;8.90;2.00;;;17.90;99.90;;;;;;5028413;28;20122;-70
2022/05/21 11:13:32;;;;;;;10.18;1.70;;;18.10;99.90;;;;;;5028320;28;20087;-73
2022/05/21 11:16:04;;;;;;;9.93;2.20;;;18.10;99.90;;;;;;5027861;28;20056;-71
2022/05/21 11:18:39;;;;;;;8.60;2.22;;;18.00;99.90;;;;;;5024123;28;20509;-72
2022/05/21 11:21:18;;;;;;;10.07;2.67;;;17.90;99.90;;;;;;5022411;28;20517;-72
2022/05/21 11:24:05;;;;;;;8.80;2.25;;;17.90;99.90;;;;;;5028248;28;20099;-72
2022/05/21 11:27:00;;;;;;;7.35;2.50;;;18.20;99.90;;;;;;5009589;28;20567;-72
2022/05/21 11:29:32;;;;;;;8.80;2.35;;;18.70;99.90;;;;;;5028126;28;20132;-72
2022/05/21 11:37:46;;;;;;;9.02;2.20;;;19.30;99.90;;;;;;5027767;28;20049;-72
2022/05/21 11:40:50;;;;;;;7.88;1.90;;;19.20;99.90;;;;;;5027639;28;20085;-72
2022/05/21 11:43:18;;;;;;;11.82;1.98;;;19.00;99.90;;;;;;5009476;28;20088;-72
2022/05/21 11:46:08;;;;;;;5.82;1.77;;;19.00;99.90;;;;;;5028550;28;20046;-72
2022/05/21 11:48:34;;;;;;;;;;;19.20;99.90;;;;;;5028472;28;20581;-72
2022/05/21 11:51:23;;;;;;;8.07;1.70;;;19.40;99.90;;;;;;5028191;28;19976;-71
2022/05/21 11:53:48;;;;;;;6.53;1.80;;;19.40;99.90;;;;;;5028181;28;20519;-72
2022/05/21 11:56:14;;;;;;;8.13;2.25;;;19.20;99.90;;;;;;5027569;28;20045;-72
2022/05/21 11:58:59;;;;;;;11.25;2.22;;;19.10;99.90;;;;;;4995672;28;20037;-73
2022/05/21 12:01:45;;;;;;;8.38;1.80;;;19.00;99.90;;;;;;5025424;28;20037;-72
2022/05/21 12:04:36;;;;;;;10.82;2.20;;;19.10;99.90;;;;;;4997254;28;20050;-72
2022/05/21 12:07:05;;;;;;;7.28;1.98;;;19.20;99.90;;;;;;5010974;28;20049;-72
2022/05/21 12:09:31;;;;;;;10.30;1.70;;;19.30;99.90;;;;;;5027710;28;20049;-73
2022/05/21 12:12:23;;;;;;;9.13;2.17;;;19.30;99.90;;;;;;5009787;28;20045;-73
2022/05/21 12:15:13;;;;;;;7.88;1.67;;;19.40;99.90;;;;;;5027488;28;20088;-71
2022/05/21 12:17:43;;;;;;;8.77;2.35;;;19.40;99.90;;;;;;5027041;28;20059;-71
2022/05/21 12:20:11;;;;;;;;;;;19.30;99.90;;;;;;5011102;28;20080;-71
2022/05/21 12:22:44;;;;;;;8.95;1.92;;;19.40;99.90;;;;;;5010818;28;19932;-71
2022/05/21 12:25:59;;;;;;;6.70;1.85;;;19.60;99.90;;;;;;5026234;28;20042;-71
2022/05/21 12:29:07;;;;;;;7.38;1.38;;;19.80;99.90;;;;;;4950855;28;20043;-71
2022/05/21 12:31:44;;;;;;;9.05;1.80;;;19.80;99.90;;;;;;4943461;28;20058;-70
2022/05/21 12:34:12;;;;;;;7.68;1.90;;;19.90;99.90;;;;;;5018792;28;20081;-71
2022/05/21 12:37:09;;;;;;;7.05;1.60;;;20.00;99.90;;;;;;5010799;28;20048;-71
2022/05/21 12:39:58;;;;;;;7.90;1.23;;;20.20;99.90;;;;;;5025227;28;20421;-71
2022/05/21 12:42:52;;;;;;;5.00;1.02;;;20.40;99.90;;;;;;5008225;28;20049;-72
2022/05/21 12:45:47;;;;;;;4.47;0.90;;;20.50;99.90;;;;;;5025938;28;20114;-72
2022/05/21 12:48:19;;;;;;;4.47;1.08;;;20.60;99.90;;;;;;5010159;28;20077;-73
2022/05/21 12:50:53;;;;;;;5.57;1.25;;;20.60;99.90;;;;;;5010546;28;20124;-71
2022/05/21 12:53:34;;;;;;;7.53;1.60;;;20.30;99.90;;;;;;5025914;28;20053;-71
2022/05/21 12:56:14;;;;;;;5.90;1.30;;;19.90;99.90;;;;;;5026439;28;20521;-71
2022/05/21 12:58:39;;;;;;;8.13;1.67;;;19.70;99.90;;;;;;5026799;28;20037;-71
2022/05/21 13:01:05;;;;;;;7.00;1.30;;;19.50;99.90;;;;;;5008451;28;20041;-72
2022/05/21 13:03:34;;;;;;;9.15;1.42;;;19.30;99.90;;;;;;4995757;28;20037;-71
2022/05/21 13:06:07;;;;;;;7.35;1.80;;;19.30;99.90;;;;;;5009936;28;20127;-72
2022/05/21 13:08:36;;;;;;;7.03;1.50;;;19.50;99.90;;;;;;5026631;28;20220;-71
2022/05/21 13:11:02;;;;;;;7.35;1.63;;;19.50;99.90;;;;;;5018604;28;20504;-72
2022/05/21 13:13:32;;;;;;;8.88;2.28;;;19.50;99.90;;;;;;5009183;28;20041;-72
2022/05/21 13:16:00;;;;;;;6.10;1.20;;;19.70;99.90;;;;;;5025868;28;20472;-72
2022/05/21 13:18:39;;;;;;;7.15;1.30;;;20.00;99.90;;;;;;5025832;28;20056;-72
2022/05/21 13:21:19;;;;;;;4.50;1.20;;;20.20;99.90;;;;;;5009791;28;20407;-71
2022/05/21 13:24:03;;;;;;;;;;;20.50;99.90;;;;;;5041674;28;20511;-72
2022/05/21 13:26:34;;;;;;;6.20;1.20;;;20.80;99.90;;;;;;5043309;28;20048;-72
2022/05/21 13:29:25;;;;;;;7.80;1.35;;;21.00;99.90;;;;;;5010492;28;20474;-71
2022/05/21 13:31:52;;;;;;;4.78;1.10;;;21.20;99.90;;;;;;5026517;28;20080;-72
2022/05/21 13:34:27;;;;;;;7.25;1.30;;;21.30;99.90;;;;;;5025784;28;20403;-71
2022/05/21 13:37:01;;;;;;;4.05;1.08;;;21.30;99.80;;;;;;5025809;28;20044;-71